createdAt,value
2019-02-10T00:01:20.995Z,100193.50
2019-02-10T00:03:49.734Z,100197.78
2019-02-10T00:06:24.816Z,100204.13
2019-02-10T00:08:50.113Z,100203.36
2019-02-10T00:11:18.886Z,100209.55
2019-02-10T00:13:47.804Z,100212.63
2019-02-10T00:16:17.440Z,100216.61
2019-02-10T00:18:46.191Z,100213.73
2019-02-10T00:21:15.191Z,100209.45
2019-02-10T00:23:43.931Z,100207.22
2019-02-10T00:26:12.670Z,100201.86
2019-02-10T00:28:41.566Z,100202.69
2019-02-10T00:31:10.296Z,100200.94
2019-02-10T00:33:39.035Z,100207.30
2019-02-10T00:36:07.832Z,100215.23
2019-02-10T00:38:36.572Z,100209.33
2019-02-10T00:41:05.315Z,100212.56
2019-02-10T00:43:34.266Z,100215.27
2019-02-10T00:46:03.025Z,100218.62
2019-02-10T00:48:31.766Z,100227.30
2019-02-10T00:51:00.665Z,100224.73
2019-02-10T00:53:29.396Z,100224.34
2019-02-10T00:55:58.151Z,100217.86
2019-02-10T00:58:27.277Z,100219.63
2019-02-10T01:00:56.019Z,100218.72
2019-02-10T01:03:24.758Z,100210.25
2019-02-10T01:05:54.095Z,100205.82
2019-02-10T01:08:22.930Z,100216.30
2019-02-10T01:10:51.673Z,100202.58
2019-02-10T01:13:20.474Z,100199.95
2019-02-10T01:15:49.208Z,100202.61
2019-02-10T01:18:17.951Z,100195.89
2019-02-10T01:20:47.123Z,100190.17
2019-02-10T01:23:15.862Z,100188.73
2019-02-10T01:25:44.607Z,100185.56
2019-02-10T01:28:13.421Z,100179.78
2019-02-10T01:30:42.959Z,100181.77
2019-02-10T01:33:11.693Z,100177.77
2019-02-10T01:35:40.586Z,100185.48
2019-02-10T01:38:09.315Z,100186.77
2019-02-10T01:40:38.059Z,100185.39
2019-02-10T01:43:07.185Z,100190.52
2019-02-10T01:45:35.933Z,100185.34
2019-02-10T01:48:04.678Z,100191.61
2019-02-10T01:50:33.600Z,100190.47
2019-02-10T01:53:03.138Z,100191.31
2019-02-10T01:55:33.031Z,100188.06
2019-02-10T01:58:01.937Z,100188.68
2019-02-10T02:00:30.773Z,100186.79
2019-02-10T02:02:59.517Z,100185.22
2019-02-10T02:05:28.682Z,100180.99
2019-02-10T02:07:57.516Z,100176.92
2019-02-10T02:10:27.855Z,100172.77
2019-02-10T02:12:56.674Z,100180.58
2019-02-10T02:15:25.408Z,100172.73
2019-02-10T02:17:54.144Z,100165.34
2019-02-10T02:20:22.990Z,100165.08
2019-02-10T02:22:51.829Z,100164.02
2019-02-10T02:25:20.722Z,100166.23
2019-02-10T02:27:49.719Z,100164.20
2019-02-10T02:30:18.589Z,100161.39
2019-02-10T02:32:47.355Z,100166.64
2019-02-10T02:35:16.136Z,100172.83
2019-02-10T02:37:44.888Z,100164.77
2019-02-10T02:40:13.624Z,100163.27
2019-02-10T02:42:42.488Z,100163.68
2019-02-10T02:45:12.328Z,100159.66
2019-02-10T02:47:41.178Z,100168.52
2019-02-10T02:50:11.585Z,100172.37
2019-02-10T02:52:40.434Z,100175.41
2019-02-10T02:55:10.104Z,100182.22
2019-02-10T02:57:39.341Z,100178.30
2019-02-10T03:00:10.385Z,100180.94
2019-02-10T03:02:39.103Z,100180.55
2019-02-10T03:05:11.168Z,100180.34
2019-02-10T03:07:39.916Z,100175.89
2019-02-10T03:10:09.464Z,100174.39
2019-02-10T03:12:38.247Z,100171.10
2019-02-10T03:15:08.695Z,100170.79
2019-02-10T03:17:37.528Z,100173.94
2019-02-10T03:20:08.199Z,100179.94
2019-02-10T03:22:36.936Z,100183.81
2019-02-10T03:25:07.738Z,100182.92
2019-02-10T03:27:36.515Z,100188.44
2019-02-10T03:30:07.986Z,100185.58
2019-02-10T03:32:36.720Z,100187.34
2019-02-10T03:35:07.899Z,100184.09
2019-02-10T03:37:36.642Z,100182.81
2019-02-10T03:40:08.084Z,100200.05
2019-02-10T03:42:36.985Z,100191.08
2019-02-10T03:45:07.729Z,100197.48
2019-02-10T03:47:36.473Z,100203.69
2019-02-10T03:50:07.756Z,100205.27
2019-02-10T03:52:36.485Z,100206.17
2019-02-10T03:55:06.715Z,100204.31
2019-02-10T03:57:36.498Z,100201.64
2019-02-10T04:00:10.749Z,100203.13
2019-02-10T04:02:39.480Z,100195.83
2019-02-10T04:05:08.369Z,100206.77
2019-02-10T04:07:37.096Z,100209.02
2019-02-10T04:10:08.983Z,100203.78
2019-02-10T04:12:39.896Z,100204.38
2019-02-10T04:15:09.425Z,100200.16
2019-02-10T04:17:38.151Z,100200.81
2019-02-10T04:20:08.555Z,100202.82
2019-02-10T04:22:37.292Z,100197.87
2019-02-10T04:25:06.726Z,100202.41
2019-02-10T04:27:35.514Z,100202.39
2019-02-10T04:30:09.390Z,100203.37
2019-02-10T04:32:38.462Z,100204.84
2019-02-10T04:35:07.250Z,100203.84
2019-02-10T04:37:45.034Z,100208.28
2019-02-10T04:40:07.546Z,100200.53
2019-02-10T04:42:36.320Z,100209.70
2019-02-10T04:45:05.259Z,100209.40
2019-02-10T04:47:34.292Z,100205.66
2019-02-10T04:50:04.413Z,100204.97
2019-02-10T04:52:33.160Z,100202.23
2019-02-10T04:55:02.062Z,100202.72
2019-02-10T04:57:30.966Z,100197.11
2019-02-10T04:59:59.704Z,100195.13
2019-02-10T05:02:28.445Z,100196.11
2019-02-10T05:04:57.352Z,100210.68
2019-02-10T05:07:26.141Z,100202.50
2019-02-10T05:09:54.888Z,100206.62
2019-02-10T05:12:23.713Z,100210.45
2019-02-10T05:14:52.403Z,100204.62
2019-02-10T05:17:21.155Z,100204.62
2019-02-10T05:19:50.021Z,100211.99
2019-02-10T05:22:18.759Z,100211.99
2019-02-10T05:24:47.491Z,100211.79
2019-02-10T05:27:16.384Z,100200.78
2019-02-10T05:29:45.179Z,100202.87
2019-02-10T05:32:13.927Z,100208.42
2019-02-10T05:34:42.840Z,100217.77
2019-02-10T05:37:11.582Z,100214.25
2019-02-10T05:39:40.316Z,100213.66
2019-02-10T05:42:09.094Z,100216.22
2019-02-10T05:44:37.843Z,100214.14
2019-02-10T05:47:06.578Z,100205.59
2019-02-10T05:49:35.476Z,100211.30
2019-02-10T05:52:04.256Z,100219.41
2019-02-10T05:54:32.963Z,100224.13
2019-02-10T05:57:02.115Z,100226.98
2019-02-10T05:59:30.943Z,100225.42
2019-02-10T06:02:06.222Z,100230.84
2019-02-10T06:04:43.912Z,100234.78
2019-02-10T06:07:16.634Z,100236.34
2019-02-10T06:09:57.948Z,100233.80
2019-02-10T06:12:22.361Z,100236.84
2019-02-10T06:14:51.098Z,100246.30
2019-02-10T06:17:19.856Z,100250.92
2019-02-10T06:19:48.727Z,100249.25
2019-02-10T06:22:17.522Z,100262.14
2019-02-10T06:24:46.269Z,100261.53
2019-02-10T06:27:15.431Z,100263.80
2019-02-10T06:29:44.232Z,100272.83
2019-02-10T06:32:16.027Z,100273.84
2019-02-10T06:34:47.804Z,100275.41
2019-02-10T06:37:16.582Z,100282.19
2019-02-10T06:39:45.325Z,100278.16
2019-02-10T06:42:18.054Z,100280.94
2019-02-10T06:44:47.011Z,100284.08
2019-02-10T06:47:15.745Z,100287.06
2019-02-10T06:49:44.611Z,100282.02
2019-02-10T06:52:13.375Z,100283.37
2019-02-10T06:54:46.410Z,100285.19
2019-02-10T06:57:15.268Z,100289.73
2019-02-10T06:59:53.243Z,100294.98
2019-02-10T07:02:30.037Z,100291.81
2019-02-10T07:04:58.777Z,100292.92
2019-02-10T07:07:27.602Z,100295.81
2019-02-10T07:09:56.784Z,100299.34
2019-02-10T07:12:50.318Z,100295.75
2019-02-10T07:15:55.580Z,100303.93
2019-02-10T07:19:00.199Z,100314.10
2019-02-10T07:21:32.491Z,100310.27
2019-02-10T07:24:04.143Z,100309.41
2019-02-10T07:26:58.102Z,100317.01
2019-02-10T07:29:32.639Z,100307.23
2019-02-10T07:32:01.775Z,100312.06
2019-02-10T07:34:50.303Z,100318.72
2019-02-10T07:37:24.532Z,100318.27
2019-02-10T07:40:02.576Z,100320.17
2019-02-10T07:42:50.668Z,100323.55
2019-02-10T07:45:40.720Z,100326.50
2019-02-10T07:48:29.168Z,100334.72
2019-02-10T07:51:09.761Z,100332.86
2019-02-10T07:53:53.389Z,100331.27
2019-02-10T07:56:44.708Z,100326.36
2019-02-10T07:59:37.269Z,100327.05
2019-02-10T08:02:28.837Z,100329.28
2019-02-10T08:05:18.568Z,100330.94
2019-02-10T08:08:07.187Z,100336.92
2019-02-10T08:10:41.717Z,100339.83
2019-02-10T08:13:24.043Z,100340.94
2019-02-10T08:16:08.779Z,100339.11
2019-02-10T08:18:46.320Z,100338.39
2019-02-10T08:21:33.081Z,100337.00
2019-02-10T08:24:21.120Z,100337.41
2019-02-10T08:27:04.518Z,100338.76
2019-02-10T08:29:57.345Z,100338.30
2019-02-10T08:32:34.799Z,100341.48
2019-02-10T08:35:24.655Z,100340.92
2019-02-10T08:38:01.679Z,100327.43
2019-02-10T08:41:02.021Z,100327.67
2019-02-10T08:44:02.415Z,100326.58
2019-02-10T08:46:37.037Z,100321.06
2019-02-10T08:49:20.304Z,100314.31
2019-02-10T08:51:55.049Z,100310.98
2019-02-10T08:54:25.246Z,100317.27
2019-02-10T08:56:53.982Z,100321.43
2019-02-10T08:59:22.767Z,100321.15
2019-02-10T09:01:54.276Z,100322.52
2019-02-10T09:04:23.127Z,100321.31
2019-02-10T09:06:51.990Z,100319.78
2019-02-10T09:09:20.718Z,100315.47
2019-02-10T09:11:49.449Z,100320.36
2019-02-10T09:14:18.212Z,100315.81
2019-02-10T09:16:46.941Z,100321.91
2019-02-10T09:19:15.688Z,100321.17
2019-02-10T09:21:44.430Z,100318.64
2019-02-10T09:24:13.174Z,100315.09
2019-02-10T09:26:41.901Z,100314.04
2019-02-10T09:29:10.668Z,100302.89
2019-02-10T09:31:39.414Z,100305.57
2019-02-10T09:34:08.132Z,100300.36
2019-02-10T09:36:37.246Z,100299.75
2019-02-10T09:39:10.919Z,100292.81
2019-02-10T09:41:37.118Z,100287.87
2019-02-10T09:44:06.014Z,100285.02
2019-02-10T09:46:34.739Z,100281.33
2019-02-10T09:49:03.466Z,100282.38
2019-02-10T09:51:32.369Z,100276.40
2019-02-10T09:54:01.092Z,100270.17
2019-02-10T09:56:29.819Z,100267.02
2019-02-10T09:58:58.636Z,100266.66
2019-02-10T10:01:27.365Z,100261.98
2019-02-10T10:03:56.092Z,100267.77
2019-02-10T10:06:25.128Z,100261.81
2019-02-10T10:08:53.855Z,100261.25
2019-02-10T10:11:22.591Z,100249.45
2019-02-10T10:13:51.484Z,100249.72
2019-02-10T10:16:20.217Z,100245.89
2019-02-10T10:18:48.944Z,100244.61
2019-02-10T10:21:17.812Z,100234.09
2019-02-10T10:23:46.533Z,100242.52
2019-02-10T10:26:15.263Z,100228.03
2019-02-10T10:28:44.042Z,100234.98
2019-02-10T10:31:12.769Z,100223.06
2019-02-10T10:33:41.505Z,100221.66
2019-02-10T10:36:10.286Z,100213.80
2019-02-10T10:38:39.017Z,100210.27
2019-02-10T10:41:07.744Z,100212.67
2019-02-10T10:43:36.518Z,100202.98
2019-02-10T10:46:05.246Z,100203.13
2019-02-10T10:48:33.976Z,100198.92
2019-02-10T10:51:02.870Z,100191.49
2019-02-10T10:53:31.607Z,100190.90
2019-02-10T10:56:00.345Z,100190.63
2019-02-10T10:58:29.229Z,100191.00
2019-02-10T11:00:57.966Z,100181.97
2019-02-10T11:03:26.695Z,100182.50
2019-02-10T11:05:55.549Z,100178.09
2019-02-10T11:08:24.731Z,100182.80
2019-02-10T11:10:53.464Z,100178.37
2019-02-10T11:13:22.359Z,100175.87
2019-02-10T11:15:51.091Z,100168.45
2019-02-10T11:18:19.820Z,100168.75
2019-02-10T11:20:48.699Z,100167.05
2019-02-10T11:23:17.441Z,100170.91
2019-02-10T11:25:46.166Z,100165.49
2019-02-10T11:28:15.384Z,100163.20
2019-02-10T11:30:44.119Z,100155.91
2019-02-10T11:33:12.850Z,100158.87
2019-02-10T11:35:41.724Z,100151.33
2019-02-10T11:38:10.459Z,100151.63
2019-02-10T11:40:39.188Z,100149.37
2019-02-10T11:43:07.964Z,100137.28
2019-02-10T11:45:36.702Z,100140.95
2019-02-10T11:48:05.434Z,100138.97
2019-02-10T11:50:34.231Z,100139.50
2019-02-10T11:53:02.977Z,100133.47
2019-02-10T11:55:31.700Z,100123.05
2019-02-10T11:58:00.478Z,100124.72
2019-02-10T12:00:29.208Z,100123.28
2019-02-10T12:02:57.943Z,100114.00
2019-02-10T12:05:27.200Z,100113.28
2019-02-10T12:07:55.924Z,100109.48
2019-02-10T12:10:24.798Z,100104.56
2019-02-10T12:12:53.617Z,100104.75
2019-02-10T12:15:22.343Z,100098.72
2019-02-10T12:17:51.072Z,100091.37
2019-02-10T12:20:19.943Z,100090.95
2019-02-10T12:22:50.345Z,100087.28
2019-02-10T12:25:19.315Z,100083.48
2019-02-10T12:27:48.197Z,100076.02
2019-02-10T12:30:17.615Z,100072.02
2019-02-10T12:32:46.346Z,100064.37
2019-02-10T12:35:15.229Z,100068.73
2019-02-10T12:37:43.962Z,100061.98
2019-02-10T12:40:13.295Z,100055.86
2019-02-10T12:42:42.147Z,100048.14
2019-02-10T12:45:12.783Z,100048.55
2019-02-10T12:47:41.513Z,100045.81
2019-02-10T12:50:14.196Z,100040.03
2019-02-10T12:52:42.922Z,100032.73
2019-02-10T12:55:12.560Z,100034.34
2019-02-10T12:57:41.463Z,100037.14
2019-02-10T13:00:15.968Z,100035.45
2019-02-10T13:02:44.768Z,100029.27
2019-02-10T13:05:13.667Z,100034.45
2019-02-10T13:07:42.404Z,100030.58
2019-02-10T13:10:13.142Z,100030.95
2019-02-10T13:12:42.055Z,100025.16
2019-02-10T13:15:11.777Z,100024.72
2019-02-10T13:17:40.522Z,100022.10
2019-02-10T13:20:11.407Z,100020.73
2019-02-10T13:22:40.242Z,100013.05
2019-02-10T13:25:10.669Z,100021.87
2019-02-10T13:27:39.553Z,100022.09
2019-02-10T13:30:16.907Z,100023.19
2019-02-10T13:32:45.701Z,100022.77
2019-02-10T13:35:14.437Z,100016.63
2019-02-10T13:37:43.172Z,100018.62
2019-02-10T13:40:20.842Z,100015.65
2019-02-10T13:42:49.576Z,100003.49
2019-02-10T13:45:18.350Z,100007.97
2019-02-10T13:47:47.135Z,99997.50
2019-02-10T13:50:18.508Z,99994.98
2019-02-10T13:52:47.262Z,99996.37
2019-02-10T13:55:17.043Z,99993.24
2019-02-10T13:57:45.871Z,99985.79
2019-02-10T14:00:23.331Z,99981.99
2019-02-10T14:02:52.061Z,99980.20
2019-02-10T14:05:20.893Z,99977.19
2019-02-10T14:07:50.940Z,99972.20
2019-02-10T14:10:25.568Z,99973.92
2019-02-10T14:12:50.540Z,99970.31
2019-02-10T14:15:20.481Z,99973.16
2019-02-10T14:17:49.206Z,99967.25
2019-02-10T14:20:21.032Z,99964.66
2019-02-10T14:22:49.833Z,99967.68
2019-02-10T14:25:18.553Z,99960.75
2019-02-10T14:27:47.286Z,99961.88
2019-02-10T14:30:17.884Z,99960.38
2019-02-10T14:32:46.609Z,99961.05
2019-02-10T14:35:15.550Z,99961.00
2019-02-10T14:37:44.739Z,99966.14
2019-02-10T14:40:13.564Z,99964.66
2019-02-10T14:42:42.302Z,99962.09
2019-02-10T14:45:15.785Z,99954.14
2019-02-10T14:47:44.622Z,99954.27
2019-02-10T14:50:17.775Z,99953.11
2019-02-10T14:52:46.972Z,99953.94
2019-02-10T14:55:15.712Z,99957.31
2019-02-10T14:57:44.442Z,99951.53
2019-02-10T15:00:17.662Z,99952.45
2019-02-10T15:02:46.404Z,99950.64
2019-02-10T15:05:15.248Z,99953.61
2019-02-10T15:07:44.020Z,99945.31
2019-02-10T15:10:17.648Z,99943.50
2019-02-10T15:12:46.378Z,99941.73
2019-02-10T15:15:15.182Z,99938.05
2019-02-10T15:17:44.043Z,99938.59
2019-02-10T15:20:13.589Z,99936.93
2019-02-10T15:22:42.434Z,99942.41
2019-02-10T15:25:12.652Z,99939.69
2019-02-10T15:27:41.585Z,99940.25
2019-02-10T15:30:12.723Z,99942.77
2019-02-10T15:32:41.459Z,99937.70
2019-02-10T15:35:10.589Z,99942.31
2019-02-10T15:37:39.750Z,99942.75
2019-02-10T15:40:10.555Z,99943.82
2019-02-10T15:42:39.283Z,99941.02
2019-02-10T15:45:13.247Z,99932.97
2019-02-10T15:47:41.988Z,99934.57
2019-02-10T15:50:14.439Z,99928.34
2019-02-10T15:52:43.757Z,99931.05
2019-02-10T15:55:13.474Z,99940.47
2019-02-10T15:57:42.207Z,99937.36
2019-02-10T16:00:19.819Z,99936.59
2019-02-10T16:02:48.622Z,99930.38
2019-02-10T16:05:17.375Z,99936.89
2019-02-10T16:07:46.280Z,99939.53
2019-02-10T16:10:15.008Z,99942.64
2019-02-10T16:12:43.734Z,99945.00
2019-02-10T16:15:13.108Z,99943.96
2019-02-10T16:17:41.837Z,99948.13
2019-02-10T16:20:13.517Z,99940.58
2019-02-10T16:22:42.343Z,99941.33
2019-02-10T16:25:11.081Z,99943.17
2019-02-10T16:27:39.823Z,99938.44
2019-02-10T16:30:18.844Z,99928.30
2019-02-10T16:32:49.928Z,99928.82
2019-02-10T16:35:18.041Z,99926.22
2019-02-10T16:37:47.016Z,99927.80
2019-02-10T16:40:19.732Z,99932.50
2019-02-10T16:42:48.503Z,99935.37
2019-02-10T16:45:17.369Z,99947.08
2019-02-10T16:47:46.089Z,99954.87
2019-02-10T16:50:16.238Z,99954.08
2019-02-10T16:52:45.139Z,99954.34
2019-02-10T16:55:18.915Z,99958.45
2019-02-10T16:57:47.660Z,99950.09
2019-02-10T17:00:17.304Z,99957.35
2019-02-10T17:02:46.036Z,99953.95
2019-02-10T17:05:14.777Z,99953.66
2019-02-10T17:07:43.804Z,99947.63
2019-02-10T17:10:17.230Z,99950.48
2019-02-10T17:12:49.426Z,99950.72
2019-02-10T17:15:18.158Z,99951.98
2019-02-10T17:17:46.903Z,99957.42
2019-02-10T17:20:17.327Z,99951.17
2019-02-10T17:22:46.232Z,99961.84
2019-02-10T17:25:21.083Z,99958.73
2019-02-10T17:27:49.955Z,99965.95
2019-02-10T17:30:18.702Z,99961.80
2019-02-10T17:32:47.430Z,99958.36
2019-02-10T17:35:16.363Z,99949.51
2019-02-10T17:37:45.105Z,99950.27
2019-02-10T17:40:19.739Z,99946.65
2019-02-10T17:42:48.492Z,99946.97
2019-02-10T17:45:17.219Z,99942.53
2019-02-10T17:47:46.374Z,99942.97
2019-02-10T17:50:15.113Z,99943.97
2019-02-10T17:52:43.835Z,99935.41
2019-02-10T17:55:12.605Z,99933.05
2019-02-10T17:57:41.351Z,99931.03
2019-02-10T18:00:19.199Z,99921.19
2019-02-10T18:02:47.938Z,99921.77
2019-02-10T18:05:16.688Z,99923.68
2019-02-10T18:07:45.620Z,99919.48
2019-02-10T18:10:15.471Z,99921.58
2019-02-10T18:12:44.205Z,99916.19
2019-02-10T18:15:14.587Z,99910.71
2019-02-10T18:17:47.878Z,99905.28
2019-02-10T18:20:34.378Z,99905.52
2019-02-10T18:23:04.674Z,99910.45
2019-02-10T18:25:47.402Z,99919.19
2019-02-10T18:28:23.536Z,99913.19
2019-02-10T18:30:54.013Z,99915.48
2019-02-10T18:33:27.068Z,99909.05
2019-02-10T18:36:13.683Z,99909.78
2019-02-10T18:38:46.761Z,99904.42
2019-02-10T18:41:23.469Z,99906.81
2019-02-10T18:43:59.812Z,99903.91
2019-02-10T18:46:48.838Z,99899.97
2019-02-10T18:49:22.165Z,99895.01
2019-02-10T18:51:52.462Z,99895.45
2019-02-10T18:54:38.332Z,99896.67
2019-02-10T18:57:08.626Z,99889.41
2019-02-10T18:59:48.351Z,99887.94
2019-02-10T19:02:27.929Z,99889.50
2019-02-10T19:05:07.324Z,99882.25
2019-02-10T19:07:40.455Z,99884.59
2019-02-10T19:10:27.006Z,99883.98
2019-02-10T19:13:13.510Z,99881.73
2019-02-10T19:15:55.956Z,99875.81
2019-02-10T19:18:29.025Z,99870.87
2019-02-10T19:20:59.530Z,99887.73
2019-02-10T19:23:29.824Z,99881.75
2019-02-10T19:26:16.462Z,99881.51
2019-02-10T19:28:46.786Z,99873.96
2019-02-10T19:31:23.131Z,99870.61
2019-02-10T19:33:53.450Z,99869.59
2019-02-10T19:36:29.688Z,99877.11
2019-02-10T19:39:08.978Z,99871.64
2019-02-10T19:41:39.353Z,99871.92
2019-02-10T19:44:15.466Z,99872.97
2019-02-10T19:46:46.251Z,99876.08
2019-02-10T19:49:16.594Z,99878.86
2019-02-10T19:52:05.063Z,99873.94
2019-02-10T19:54:41.169Z,99874.45
2019-02-10T19:57:24.786Z,99862.58
2019-02-10T19:59:55.165Z,99867.97
2019-02-10T20:02:28.261Z,99872.08
2019-02-10T20:05:04.737Z,99868.84
2019-02-10T20:07:35.242Z,99866.16
2019-02-10T20:10:05.882Z,99859.64
2019-02-10T20:12:36.187Z,99853.69
2019-02-10T20:15:08.870Z,99849.78
2019-02-10T20:17:45.296Z,99847.69
2019-02-10T20:20:15.859Z,99846.17
2019-02-10T20:22:46.302Z,99853.06
2019-02-10T20:25:19.639Z,99842.65
2019-02-10T20:28:06.577Z,99848.92
2019-02-10T20:30:47.821Z,99859.21
2019-02-10T20:33:36.389Z,99868.73
2019-02-10T20:36:15.675Z,99863.37
2019-02-10T20:38:54.908Z,99856.83
2019-02-10T20:41:39.389Z,99852.09
2019-02-10T20:44:09.862Z,99853.12
2019-02-10T20:46:56.199Z,99851.52
2019-02-10T20:49:35.494Z,99843.84
2019-02-10T20:52:05.780Z,99842.20
2019-02-10T20:54:42.375Z,99846.62
2019-02-10T20:57:13.682Z,99831.58
2019-02-10T20:59:44.061Z,99831.30
2019-02-10T21:02:24.038Z,99841.69
2019-02-10T21:04:58.009Z,99836.48
2019-02-10T21:07:28.352Z,99838.27
2019-02-10T21:10:05.124Z,99836.19
2019-02-10T21:12:38.542Z,99832.01
2019-02-10T21:15:28.000Z,99827.00
2019-02-10T21:18:14.397Z,99821.58
2019-02-10T21:20:48.170Z,99813.28
2019-02-10T21:23:18.464Z,99814.75
2019-02-10T21:25:52.998Z,99810.62
2019-02-10T21:28:23.793Z,99807.27
2019-02-10T21:31:00.144Z,99809.39
2019-02-10T21:33:43.439Z,99810.17
2019-02-10T21:36:16.494Z,99808.88
2019-02-10T21:38:52.818Z,99802.06
2019-02-10T21:41:32.310Z,99797.78
2019-02-10T21:46:56.217Z,99794.80
2019-02-10T21:49:25.015Z,99789.07
2019-02-10T21:51:53.740Z,99784.63
2019-02-10T21:54:22.466Z,99783.29
2019-02-10T21:56:51.269Z,99782.13
2019-02-10T21:59:19.986Z,99779.99
2019-02-10T22:01:48.732Z,99777.77
2019-02-10T22:04:18.625Z,99775.27
2019-02-10T22:06:47.331Z,99772.63
2019-02-10T22:09:16.063Z,99772.17
2019-02-10T22:11:44.936Z,99766.75
2019-02-10T22:14:14.749Z,99759.67
2019-02-10T22:16:43.474Z,99753.86
2019-02-10T22:19:12.265Z,99744.88
2019-02-10T22:21:40.983Z,99737.30
2019-02-10T22:24:09.722Z,99735.58
2019-02-10T22:26:38.513Z,99734.22
2019-02-10T22:29:07.233Z,99729.59
2019-02-10T22:31:36.097Z,99730.78
2019-02-10T22:34:04.972Z,99714.08
2019-02-10T22:36:34.605Z,99725.13
2019-02-10T22:39:04.231Z,99722.41
2019-02-10T22:41:33.123Z,99727.57
2019-02-10T22:44:01.865Z,99728.28
2019-02-10T22:46:30.593Z,99732.52
2019-02-10T22:48:59.365Z,99732.95
2019-02-10T22:51:28.092Z,99727.81
2019-02-10T22:53:56.820Z,99727.73
2019-02-10T22:56:25.714Z,99728.17
2019-02-10T22:58:54.442Z,99723.98
2019-02-10T23:01:23.266Z,99714.27
2019-02-10T23:03:52.039Z,99711.49
2019-02-10T23:06:20.783Z,99709.55
2019-02-10T23:08:49.494Z,99696.03
2019-02-10T23:11:18.374Z,99695.86
2019-02-10T23:13:47.100Z,99702.83
2019-02-10T23:16:15.824Z,99688.08
2019-02-10T23:18:44.966Z,99678.44
2019-02-10T23:21:13.723Z,99684.11
2019-02-10T23:23:42.453Z,99692.39
2019-02-10T23:26:11.364Z,99696.61
2019-02-10T23:28:40.087Z,99699.84
2019-02-10T23:31:08.813Z,99700.82
2019-02-10T23:33:37.998Z,99702.50
2019-02-10T23:36:06.727Z,99705.03
2019-02-10T23:38:35.459Z,99708.69
2019-02-10T23:41:04.424Z,99708.76
2019-02-10T23:43:33.358Z,99701.98
2019-02-10T23:46:02.090Z,99694.23
2019-02-10T23:48:30.974Z,99682.70
2019-02-10T23:50:59.694Z,99669.00
2019-02-10T23:53:28.411Z,99663.66
2019-02-10T23:55:57.619Z,99653.09
2019-02-10T23:58:26.347Z,99663.62
